Waverly, Nebraska
Current Conditions -  °F | °C
As of 4:54 PM on Wednesday 22 Oct 2014 (Local Time) from KLNK Reporting Station
Scattered Clouds Scattered Clouds  
Wind Chill: 77°   Ceiling: Unl
Heat Index: 78°   Visibility: 10mi
Dew Point: 51°   Wind: 21mph
Humidity: 40%   Direction: 190°S
Pressure: 29.97"   Gusts: NA
Location:  40.92°N, 96.53°W
Report Text: KLNK 222154Z 19018KT 10SM SCT070 25/11 A2997 RMK AO2 PK WND 17032/2115 SLP141 T02500106
Loading
Personal Weather Stations






























Interactive Weather Map
Tropical Storm Tracking
New forecast layout! Learn more

10-Day Weather Forecast

Advertisements
Track Severe Weather on mobile